Ferris, Texas
Current Conditions -  °F | °C
As of 2:55 AM on Wednesday 26 Nov 2014 (Local Time) from KLNC Reporting Station
Clear Clear  
Wind Chill: 40°   Ceiling: Unl
Heat Index: 43°   Visibility: 10mi
Dew Point: 27°   Wind: 5mph
Humidity: 53%   Direction: 220°SW
Pressure: 30.09"   Gusts: NA
Location:  32.53°N, 96.67°W
Report Text: KLNC 260855Z AUTO 22004KT 10SM CLR 06/M03 A3009 RMK AO2 T00611028
Loading
Personal Weather Stations






























Interactive Weather Map New forecast layout! Learn more

10-Day Weather Forecast

Advertisements
Track Severe Weather on mobile